ENY14 KMIA-KAVL
Flight info
| Callsign | ENY14 |
|---|---|
| Flight time | 1h 34m |
| Altitude | 30000 |
| Route | FLMGO2 STYMY Q77 SHRKS TEEEM IRQ TUXDO |
| Aircraft | E170/M-SDE3GILORVW/S |
Departure
| Time | 2026-04-30 19:42 |
|---|---|
| Airport | Miami International Airport (KMIA) |
Arrival
| Time | 2026-04-30 21:16 |
|---|---|
| Airport | Asheville Regional Airport (KAVL) |
| Time | Latitude | Longitude | Altitude | Speed | Heading |
|---|---|---|---|---|---|
| 2026-04-30 19:17 | 25.79717 | -80.28521 | 10 ft | 0 kts | 25° |
| 2026-04-30 19:30 | 25.79694 | -80.28533 | 10 ft | 1 kts | 25° |
| 2026-04-30 19:31 | 25.79671 | -80.28534 | 10 ft | 2 kts | 322° |
| 2026-04-30 19:31 | 25.79663 | -80.28520 | 10 ft | 2 kts | 279° |
| 2026-04-30 19:31 | 25.79662 | -80.28528 | 10 ft | 2 kts | 263° |
| 2026-04-30 19:32 | 25.79660 | -80.28539 | 10 ft | 2 kts | 255° |
| 2026-04-30 19:32 | 25.79659 | -80.28544 | 10 ft | 0 kts | 253° |
| 2026-04-30 19:34 | 25.79658 | -80.28545 | 10 ft | 0 kts | 253° |
| 2026-04-30 19:34 | 25.79656 | -80.28553 | 10 ft | 1 kts | 253° |
| 2026-04-30 19:34 | 25.79652 | -80.28588 | 10 ft | 3 kts | 266° |
| 2026-04-30 19:35 | 25.79650 | -80.28622 | 10 ft | 5 kts | 266° |
| 2026-04-30 19:35 | 25.79647 | -80.28667 | 10 ft | 6 kts | 264° |
| 2026-04-30 19:35 | 25.79641 | -80.28726 | 10 ft | 8 kts | 265° |
| 2026-04-30 19:35 | 25.79647 | -80.28792 | 10 ft | 9 kts | 309° |
| 2026-04-30 19:36 | 25.79707 | -80.28812 | 10 ft | 10 kts | 358° |
| 2026-04-30 19:36 | 25.79784 | -80.28816 | 10 ft | 11 kts | 358° |
| 2026-04-30 19:36 | 25.79974 | -80.28825 | 10 ft | 15 kts | 351° |
| 2026-04-30 19:37 | 25.80011 | -80.28919 | 10 ft | 15 kts | 266° |
| 2026-04-30 19:37 | 25.80006 | -80.29047 | 10 ft | 17 kts | 268° |
| 2026-04-30 19:37 | 25.80000 | -80.29185 | 10 ft | 18 kts | 268° |
| 2026-04-30 19:37 | 25.79994 | -80.29336 | 10 ft | 20 kts | 266° |
| 2026-04-30 19:38 | 25.79987 | -80.29497 | 10 ft | 21 kts | 267° |
| 2026-04-30 19:38 | 25.79981 | -80.29665 | 10 ft | 22 kts | 267° |
| 2026-04-30 19:38 | 25.79973 | -80.29841 | 10 ft | 22 kts | 264° |
| 2026-04-30 19:38 | 25.79967 | -80.29987 | 10 ft | 16 kts | 262° |
| 2026-04-30 19:39 | 25.79964 | -80.30079 | 10 ft | 6 kts | 284° |
| 2026-04-30 19:39 | 25.79979 | -80.30096 | 10 ft | 0 kts | 350° |
| 2026-04-30 19:40 | 25.79985 | -80.30097 | 10 ft | 1 kts | 350° |
| 2026-04-30 19:40 | 25.80008 | -80.30102 | 10 ft | 4 kts | 350° |
| 2026-04-30 19:41 | 25.80052 | -80.30100 | 10 ft | 7 kts | 32° |
| 2026-04-30 19:41 | 25.80075 | -80.30034 | 10 ft | 11 kts | 86° |
| 2026-04-30 19:41 | 25.80087 | -80.29729 | 10 ft | 71 kts | 88° |
| 2026-04-30 19:41 | 25.80119 | -80.28969 | 10 ft | 125 kts | 87° |
| 2026-04-30 19:42 | 25.80172 | -80.27859 | 112 ft | 153 kts | 90° |
| 2026-04-30 19:42 | 25.80239 | -80.26649 | 465 ft | 166 kts | 90° |
| 2026-04-30 19:42 | 25.80317 | -80.25327 | 903 ft | 174 kts | 89° |
| 2026-04-30 19:42 | 25.80425 | -80.23990 | 1377 ft | 185 kts | 88° |
| 2026-04-30 19:43 | 25.80530 | -80.22456 | 1624 ft | 213 kts | 88° |
| 2026-04-30 19:43 | 25.80633 | -80.20727 | 2076 ft | 232 kts | 87° |
| 2026-04-30 19:43 | 25.80760 | -80.18918 | 2693 ft | 244 kts | 87° |
| 2026-04-30 19:44 | 25.82524 | -80.15746 | 3752 ft | 269 kts | 19° |
| 2026-04-30 19:44 | 25.84302 | -80.15472 | 4615 ft | 264 kts | 357° |
| 2026-04-30 19:44 | 25.86180 | -80.15522 | 5217 ft | 273 kts | 356° |
| 2026-04-30 19:44 | 25.88070 | -80.15600 | 5918 ft | 276 kts | 354° |
| 2026-04-30 19:45 | 25.89978 | -80.15891 | 6554 ft | 279 kts | 344° |
| 2026-04-30 19:45 | 25.91826 | -80.16541 | 7368 ft | 277 kts | 340° |
| 2026-04-30 19:45 | 25.93642 | -80.17188 | 8130 ft | 276 kts | 340° |
| 2026-04-30 19:45 | 25.95476 | -80.17833 | 8851 ft | 277 kts | 341° |
| 2026-04-30 19:46 | 25.97302 | -80.18473 | 9507 ft | 279 kts | 340° |
| 2026-04-30 19:46 | 25.99079 | -80.19333 | 10133 ft | 278 kts | 322° |
| 2026-04-30 19:46 | 26.00545 | -80.20718 | 10700 ft | 282 kts | 318° |
| 2026-04-30 19:46 | 26.02039 | -80.22189 | 11212 ft | 289 kts | 317° |
| 2026-04-30 19:47 | 26.03549 | -80.23682 | 11690 ft | 296 kts | 317° |
| 2026-04-30 19:47 | 26.04577 | -80.24700 | 11986 ft | 301 kts | 317° |
| 2026-04-30 19:47 | 26.06677 | -80.26784 | 12652 ft | 308 kts | 317° |
| 2026-04-30 19:47 | 26.08277 | -80.28372 | 13217 ft | 310 kts | 317° |
| 2026-04-30 19:48 | 26.09893 | -80.29977 | 13788 ft | 312 kts | 317° |
| 2026-04-30 19:48 | 26.11523 | -80.31596 | 14375 ft | 313 kts | 317° |
| 2026-04-30 19:48 | 26.13134 | -80.33198 | 14925 ft | 315 kts | 317° |
| 2026-04-30 19:48 | 26.14776 | -80.34831 | 15491 ft | 316 kts | 317° |
| 2026-04-30 19:49 | 26.16423 | -80.36470 | 16016 ft | 318 kts | 317° |
| 2026-04-30 19:49 | 26.19737 | -80.39769 | 17042 ft | 322 kts | 317° |
| 2026-04-30 19:49 | 26.21397 | -80.41421 | 17545 ft | 324 kts | 317° |
| 2026-04-30 19:50 | 26.23185 | -80.42980 | 17954 ft | 329 kts | 330° |
| 2026-04-30 19:50 | 26.25252 | -80.44116 | 18361 ft | 333 kts | 332° |
| 2026-04-30 19:50 | 26.27344 | -80.45230 | 18796 ft | 335 kts | 332° |
| 2026-04-30 19:50 | 26.29453 | -80.46352 | 19217 ft | 338 kts | 332° |
| 2026-04-30 19:51 | 26.31583 | -80.47484 | 19596 ft | 342 kts | 332° |
| 2026-04-30 19:51 | 26.33732 | -80.48627 | 19982 ft | 345 kts | 332° |
| 2026-04-30 19:51 | 26.35906 | -80.49782 | 20384 ft | 347 kts | 332° |
| 2026-04-30 19:51 | 26.38097 | -80.50948 | 20748 ft | 349 kts | 332° |
| 2026-04-30 19:52 | 26.40313 | -80.52127 | 21090 ft | 352 kts | 332° |
| 2026-04-30 19:52 | 26.42537 | -80.53311 | 21446 ft | 355 kts | 332° |
| 2026-04-30 19:52 | 26.44778 | -80.54504 | 21774 ft | 357 kts | 332° |
| 2026-04-30 19:52 | 26.47000 | -80.55688 | 22101 ft | 359 kts | 332° |
| 2026-04-30 19:53 | 26.49324 | -80.56735 | 22407 ft | 364 kts | 340° |
| 2026-04-30 19:53 | 26.51797 | -80.57523 | 22757 ft | 367 kts | 341° |
| 2026-04-30 19:53 | 26.54245 | -80.58299 | 23119 ft | 368 kts | 341° |
| 2026-04-30 19:53 | 26.56718 | -80.59084 | 23455 ft | 370 kts | 341° |
| 2026-04-30 19:54 | 26.59218 | -80.59879 | 23780 ft | 373 kts | 341° |
| 2026-04-30 19:54 | 26.61724 | -80.60674 | 24110 ft | 375 kts | 341° |
| 2026-04-30 19:54 | 26.64216 | -80.61466 | 24437 ft | 376 kts | 341° |
| 2026-04-30 19:54 | 26.66757 | -80.62274 | 24766 ft | 378 kts | 341° |
| 2026-04-30 19:55 | 26.69298 | -80.63082 | 25079 ft | 380 kts | 341° |
| 2026-04-30 19:55 | 26.71844 | -80.63892 | 25403 ft | 381 kts | 341° |
| 2026-04-30 19:55 | 26.74420 | -80.64713 | 25707 ft | 383 kts | 341° |
| 2026-04-30 19:55 | 26.76973 | -80.65526 | 26038 ft | 384 kts | 340° |
| 2026-04-30 19:56 | 26.79559 | -80.66350 | 26345 ft | 386 kts | 340° |
| 2026-04-30 19:56 | 26.82153 | -80.67177 | 26669 ft | 387 kts | 340° |
| 2026-04-30 19:56 | 26.84753 | -80.68006 | 26965 ft | 388 kts | 340° |
| 2026-04-30 19:56 | 26.87336 | -80.68831 | 27223 ft | 391 kts | 340° |
| 2026-04-30 19:57 | 26.89979 | -80.69675 | 27500 ft | 393 kts | 340° |
| 2026-04-30 19:57 | 26.92566 | -80.70563 | 27739 ft | 394 kts | 337° |
| 2026-04-30 19:57 | 26.95187 | -80.71566 | 28038 ft | 395 kts | 338° |
| 2026-04-30 19:57 | 26.97774 | -80.72549 | 28326 ft | 396 kts | 338° |
| 2026-04-30 19:58 | 27.00399 | -80.73542 | 28612 ft | 397 kts | 338° |
| 2026-04-30 19:58 | 27.03013 | -80.74531 | 28890 ft | 398 kts | 338° |
| 2026-04-30 19:58 | 27.05653 | -80.75530 | 29142 ft | 400 kts | 338° |
| 2026-04-30 19:58 | 27.08306 | -80.76534 | 29425 ft | 400 kts | 338° |
| 2026-04-30 19:59 | 27.10946 | -80.77535 | 29669 ft | 402 kts | 338° |
| 2026-04-30 19:59 | 27.13603 | -80.78542 | 29940 ft | 403 kts | 338° |
| 2026-04-30 19:59 | 27.18970 | -80.80577 | 30527 ft | 403 kts | 338° |
| 2026-04-30 20:00 | 27.21645 | -80.81593 | 30758 ft | 405 kts | 338° |
| 2026-04-30 20:00 | 27.24316 | -80.82606 | 30874 ft | 400 kts | 338° |
| 2026-04-30 20:00 | 27.27002 | -80.83627 | 30891 ft | 406 kts | 338° |
| 2026-04-30 20:01 | 27.35169 | -80.86820 | 30895 ft | 423 kts | 337° |
| 2026-04-30 20:01 | 27.40801 | -80.89137 | 30888 ft | 432 kts | 336° |
| 2026-04-30 20:02 | 27.49302 | -80.92635 | 30874 ft | 435 kts | 336° |
| 2026-04-30 20:03 | 27.57815 | -80.96143 | 30869 ft | 433 kts | 336° |
| 2026-04-30 20:03 | 27.63475 | -80.98480 | 30870 ft | 434 kts | 336° |
| 2026-04-30 20:04 | 27.69204 | -81.00847 | 30867 ft | 435 kts | 336° |
| 2026-04-30 20:05 | 27.77730 | -81.04374 | 30866 ft | 433 kts | 336° |
| 2026-04-30 20:05 | 27.86234 | -81.07899 | 30867 ft | 433 kts | 336° |
| 2026-04-30 20:06 | 27.91890 | -81.10246 | 30867 ft | 434 kts | 336° |
| 2026-04-30 20:06 | 27.97574 | -81.12608 | 30855 ft | 435 kts | 336° |
| 2026-04-30 20:07 | 28.03258 | -81.14972 | 30848 ft | 435 kts | 336° |
| 2026-04-30 20:08 | 28.11454 | -81.19141 | 30861 ft | 428 kts | 332° |
| 2026-04-30 20:08 | 28.16888 | -81.21943 | 30872 ft | 432 kts | 332° |
| 2026-04-30 20:09 | 28.22356 | -81.24763 | 30874 ft | 431 kts | 332° |
| 2026-04-30 20:09 | 28.30561 | -81.28999 | 30876 ft | 431 kts | 332° |
| 2026-04-30 20:10 | 28.38747 | -81.33201 | 30878 ft | 431 kts | 332° |
| 2026-04-30 20:11 | 28.46954 | -81.37396 | 30877 ft | 431 kts | 332° |
| 2026-04-30 20:11 | 28.52451 | -81.40210 | 30875 ft | 431 kts | 332° |
| 2026-04-30 20:12 | 28.60674 | -81.44424 | 30874 ft | 434 kts | 332° |
| 2026-04-30 20:13 | 28.66147 | -81.47234 | 30872 ft | 432 kts | 332° |
| 2026-04-30 20:13 | 28.71649 | -81.50062 | 30869 ft | 432 kts | 332° |
| 2026-04-30 20:14 | 28.77127 | -81.52882 | 30872 ft | 431 kts | 331° |
| 2026-04-30 20:14 | 28.82594 | -81.55697 | 30867 ft | 431 kts | 331° |
| 2026-04-30 20:15 | 28.88054 | -81.58513 | 30867 ft | 430 kts | 331° |
| 2026-04-30 20:15 | 28.93705 | -81.60907 | 30875 ft | 438 kts | 343° |
| 2026-04-30 20:16 | 28.99896 | -81.61594 | 30867 ft | 445 kts | 349° |
| 2026-04-30 20:16 | 29.06066 | -81.62142 | 30860 ft | 444 kts | 349° |
| 2026-04-30 20:17 | 29.12256 | -81.62707 | 30861 ft | 445 kts | 349° |
| 2026-04-30 20:17 | 29.18391 | -81.63268 | 30860 ft | 444 kts | 349° |
| 2026-04-30 20:18 | 29.24582 | -81.63836 | 30859 ft | 444 kts | 349° |
| 2026-04-30 20:18 | 29.30714 | -81.64398 | 30857 ft | 444 kts | 349° |
| 2026-04-30 20:19 | 29.36900 | -81.64966 | 30852 ft | 442 kts | 349° |
| 2026-04-30 20:19 | 29.43073 | -81.65534 | 30862 ft | 441 kts | 348° |
| 2026-04-30 20:20 | 29.49224 | -81.66100 | 30860 ft | 441 kts | 348° |
| 2026-04-30 20:20 | 29.55322 | -81.66663 | 30859 ft | 439 kts | 348° |
| 2026-04-30 20:21 | 29.61449 | -81.67228 | 30856 ft | 440 kts | 348° |
| 2026-04-30 20:21 | 29.67561 | -81.67793 | 30859 ft | 442 kts | 348° |
| 2026-04-30 20:22 | 29.73684 | -81.68359 | 30855 ft | 439 kts | 348° |
| 2026-04-30 20:22 | 29.79814 | -81.68928 | 30855 ft | 441 kts | 348° |
| 2026-04-30 20:23 | 29.85940 | -81.69495 | 30855 ft | 439 kts | 348° |
| 2026-04-30 20:23 | 29.92028 | -81.70061 | 30853 ft | 439 kts | 348° |
| 2026-04-30 20:24 | 29.98118 | -81.70628 | 30854 ft | 438 kts | 348° |
| 2026-04-30 20:24 | 30.04186 | -81.71193 | 30858 ft | 439 kts | 348° |
| 2026-04-30 20:25 | 30.13359 | -81.72047 | 30859 ft | 440 kts | 347° |
| 2026-04-30 20:26 | 30.22446 | -81.72897 | 30860 ft | 439 kts | 347° |
| 2026-04-30 20:26 | 30.31599 | -81.73753 | 30858 ft | 437 kts | 347° |
| 2026-04-30 20:27 | 30.43770 | -81.74895 | 30857 ft | 436 kts | 347° |
| 2026-04-30 20:28 | 30.55890 | -81.76035 | 30850 ft | 437 kts | 347° |
| 2026-04-30 20:30 | 30.71107 | -81.77480 | 30835 ft | 439 kts | 347° |
| 2026-04-30 20:31 | 30.89257 | -81.79219 | 30814 ft | 435 kts | 346° |
| 2026-04-30 20:32 | 31.04414 | -81.80677 | 30817 ft | 434 kts | 346° |
| 2026-04-30 20:33 | 31.13466 | -81.81549 | 30813 ft | 436 kts | 346° |
| 2026-04-30 20:34 | 31.22519 | -81.82423 | 30817 ft | 435 kts | 346° |
| 2026-04-30 20:35 | 31.31510 | -81.83293 | 30818 ft | 432 kts | 346° |
| 2026-04-30 20:35 | 31.40554 | -81.84170 | 30831 ft | 433 kts | 345° |
| 2026-04-30 20:36 | 31.46579 | -81.84756 | 30844 ft | 434 kts | 345° |
| 2026-04-30 20:37 | 31.55544 | -81.85627 | 30848 ft | 432 kts | 345° |
| 2026-04-30 20:37 | 31.61564 | -81.86214 | 30847 ft | 435 kts | 346° |
| 2026-04-30 20:38 | 31.67526 | -81.86795 | 30840 ft | 431 kts | 345° |
| 2026-04-30 20:38 | 31.73538 | -81.87382 | 30834 ft | 432 kts | 345° |
| 2026-04-30 20:39 | 31.82483 | -81.88258 | 30830 ft | 432 kts | 345° |
| 2026-04-30 20:40 | 31.91481 | -81.89140 | 30832 ft | 433 kts | 345° |
| 2026-04-30 20:40 | 31.97452 | -81.89726 | 30833 ft | 430 kts | 345° |
| 2026-04-30 20:41 | 32.06417 | -81.90608 | 30834 ft | 431 kts | 345° |
| 2026-04-30 20:41 | 32.12403 | -81.91197 | 30840 ft | 431 kts | 345° |
| 2026-04-30 20:42 | 32.18337 | -81.91993 | 30850 ft | 423 kts | 342° |
| 2026-04-30 20:43 | 32.27068 | -81.93367 | 30852 ft | 424 kts | 342° |
| 2026-04-30 20:43 | 32.32957 | -81.94289 | 30852 ft | 425 kts | 342° |
| 2026-04-30 20:44 | 32.41726 | -81.95663 | 30852 ft | 424 kts | 341° |
| 2026-04-30 20:45 | 32.53433 | -81.97502 | 30848 ft | 425 kts | 341° |
| 2026-04-30 20:45 | 32.59267 | -81.98421 | 30842 ft | 422 kts | 342° |
| 2026-04-30 20:46 | 32.70964 | -82.00266 | 30840 ft | 422 kts | 341° |
| 2026-04-30 20:47 | 32.79667 | -82.01641 | 30837 ft | 421 kts | 341° |
| 2026-04-30 20:48 | 32.88437 | -82.03030 | 30830 ft | 423 kts | 341° |
| 2026-04-30 20:48 | 32.94248 | -82.03951 | 30832 ft | 420 kts | 341° |
| 2026-04-30 20:49 | 32.99999 | -82.04866 | 30825 ft | 422 kts | 341° |
| 2026-04-30 20:50 | 33.08749 | -82.06258 | 30833 ft | 422 kts | 341° |
| 2026-04-30 20:50 | 33.14566 | -82.07185 | 30840 ft | 423 kts | 341° |
| 2026-04-30 20:51 | 33.20324 | -82.08105 | 30845 ft | 422 kts | 341° |
| 2026-04-30 20:51 | 33.29042 | -82.09497 | 30858 ft | 417 kts | 341° |
| 2026-04-30 20:52 | 33.34818 | -82.10422 | 30871 ft | 418 kts | 341° |
| 2026-04-30 20:53 | 33.43534 | -82.11821 | 30875 ft | 421 kts | 341° |
| 2026-04-30 20:53 | 33.49362 | -82.12758 | 30872 ft | 424 kts | 341° |
| 2026-04-30 20:54 | 33.58103 | -82.14165 | 30868 ft | 422 kts | 341° |
| 2026-04-30 20:55 | 33.66766 | -82.15560 | 30859 ft | 418 kts | 340° |
| 2026-04-30 20:55 | 33.72562 | -82.16511 | 30867 ft | 421 kts | 340° |
| 2026-04-30 20:56 | 33.81259 | -82.17990 | 30860 ft | 420 kts | 340° |
| 2026-04-30 20:57 | 33.89906 | -82.19460 | 30863 ft | 414 kts | 339° |
| 2026-04-30 20:57 | 33.95620 | -82.20438 | 30821 ft | 416 kts | 340° |
| 2026-04-30 20:58 | 34.01228 | -82.21392 | 29794 ft | 402 kts | 339° |
| 2026-04-30 20:58 | 34.03943 | -82.21856 | 29278 ft | 395 kts | 339° |
| 2026-04-30 20:58 | 34.06680 | -82.22327 | 28757 ft | 397 kts | 339° |
| 2026-04-30 20:58 | 34.09421 | -82.22797 | 28222 ft | 398 kts | 340° |
| 2026-04-30 20:59 | 34.14849 | -82.23726 | 27154 ft | 392 kts | 340° |
| 2026-04-30 20:59 | 34.17542 | -82.24187 | 26635 ft | 390 kts | 340° |
| 2026-04-30 21:00 | 34.22837 | -82.25096 | 25616 ft | 387 kts | 341° |
| 2026-04-30 21:00 | 34.28150 | -82.26009 | 24590 ft | 384 kts | 341° |
| 2026-04-30 21:01 | 34.33405 | -82.26914 | 23574 ft | 383 kts | 342° |
| 2026-04-30 21:01 | 34.36059 | -82.27371 | 23058 ft | 380 kts | 342° |
| 2026-04-30 21:01 | 34.41278 | -82.28271 | 22049 ft | 376 kts | 342° |
| 2026-04-30 21:02 | 34.43821 | -82.28709 | 21554 ft | 373 kts | 343° |
| 2026-04-30 21:02 | 34.46400 | -82.29154 | 21058 ft | 369 kts | 343° |
| 2026-04-30 21:02 | 34.48897 | -82.29585 | 20613 ft | 364 kts | 343° |
| 2026-04-30 21:02 | 34.51394 | -82.30017 | 20137 ft | 362 kts | 343° |
| 2026-04-30 21:03 | 34.53889 | -82.30449 | 19667 ft | 358 kts | 343° |
| 2026-04-30 21:03 | 34.56325 | -82.30871 | 19199 ft | 356 kts | 344° |
| 2026-04-30 21:03 | 34.58755 | -82.31292 | 18731 ft | 351 kts | 344° |
| 2026-04-30 21:03 | 34.61164 | -82.31709 | 18268 ft | 349 kts | 345° |
| 2026-04-30 21:04 | 34.63566 | -82.32126 | 17798 ft | 343 kts | 345° |
| 2026-04-30 21:04 | 34.65924 | -82.32536 | 17349 ft | 342 kts | 345° |
| 2026-04-30 21:04 | 34.70609 | -82.33349 | 16441 ft | 338 kts | 345° |
| 2026-04-30 21:05 | 34.72943 | -82.33755 | 15994 ft | 339 kts | 346° |
| 2026-04-30 21:05 | 34.75290 | -82.34163 | 15541 ft | 337 kts | 346° |
| 2026-04-30 21:05 | 34.77597 | -82.34563 | 15096 ft | 334 kts | 346° |
| 2026-04-30 21:05 | 34.79866 | -82.34959 | 14660 ft | 332 kts | 346° |
| 2026-04-30 21:06 | 34.82155 | -82.35358 | 14218 ft | 330 kts | 346° |
| 2026-04-30 21:06 | 34.84440 | -82.35757 | 13776 ft | 330 kts | 346° |
| 2026-04-30 21:06 | 34.86688 | -82.36148 | 13341 ft | 327 kts | 346° |
| 2026-04-30 21:06 | 34.88957 | -82.36545 | 12901 ft | 327 kts | 346° |
| 2026-04-30 21:07 | 34.91184 | -82.36933 | 12474 ft | 326 kts | 347° |
| 2026-04-30 21:07 | 34.93438 | -82.37327 | 12040 ft | 324 kts | 347° |
| 2026-04-30 21:07 | 34.95615 | -82.37706 | 11612 ft | 312 kts | 347° |
| 2026-04-30 21:07 | 34.97722 | -82.38074 | 11200 ft | 300 kts | 347° |
| 2026-04-30 21:08 | 34.99768 | -82.38432 | 10808 ft | 290 kts | 347° |
| 2026-04-30 21:08 | 35.01720 | -82.38774 | 10422 ft | 281 kts | 347° |
| 2026-04-30 21:08 | 35.03629 | -82.39128 | 9959 ft | 278 kts | 347° |
| 2026-04-30 21:08 | 35.05553 | -82.39492 | 9506 ft | 277 kts | 347° |
| 2026-04-30 21:09 | 35.07429 | -82.39861 | 9071 ft | 275 kts | 347° |
| 2026-04-30 21:09 | 35.09322 | -82.40254 | 8618 ft | 275 kts | 347° |
| 2026-04-30 21:09 | 35.11200 | -82.40656 | 8179 ft | 272 kts | 347° |
| 2026-04-30 21:09 | 35.13047 | -82.41064 | 7737 ft | 271 kts | 347° |
| 2026-04-30 21:10 | 35.14893 | -82.41488 | 7302 ft | 269 kts | 347° |
| 2026-04-30 21:10 | 35.16714 | -82.41925 | 6861 ft | 264 kts | 347° |
| 2026-04-30 21:10 | 35.18509 | -82.42374 | 6413 ft | 260 kts | 347° |
| 2026-04-30 21:10 | 35.20241 | -82.42920 | 5960 ft | 256 kts | 333° |
| 2026-04-30 21:11 | 35.21730 | -82.44038 | 5557 ft | 250 kts | 332° |
| 2026-04-30 21:11 | 35.23277 | -82.44971 | 5145 ft | 247 kts | 336° |
| 2026-04-30 21:11 | 35.24831 | -82.45759 | 5102 ft | 227 kts | 339° |
| 2026-04-30 21:11 | 35.26229 | -82.46416 | 5063 ft | 208 kts | 339° |
| 2026-04-30 21:12 | 35.27529 | -82.47008 | 4985 ft | 192 kts | 340° |
| 2026-04-30 21:12 | 35.28747 | -82.47555 | 4844 ft | 181 kts | 340° |
| 2026-04-30 21:12 | 35.29909 | -82.48077 | 4655 ft | 173 kts | 340° |
| 2026-04-30 21:12 | 35.31010 | -82.48568 | 4481 ft | 162 kts | 340° |
| 2026-04-30 21:13 | 35.32003 | -82.49011 | 4449 ft | 145 kts | 340° |
| 2026-04-30 21:13 | 35.32977 | -82.49447 | 4048 ft | 153 kts | 340° |
| 2026-04-30 21:13 | 35.33972 | -82.49892 | 3916 ft | 145 kts | 341° |
| 2026-04-30 21:13 | 35.34906 | -82.50307 | 3710 ft | 139 kts | 341° |
| 2026-04-30 21:14 | 35.35793 | -82.50703 | 3393 ft | 135 kts | 340° |
| 2026-04-30 21:14 | 35.36666 | -82.51112 | 3249 ft | 132 kts | 339° |
| 2026-04-30 21:14 | 35.37519 | -82.51508 | 3047 ft | 131 kts | 341° |
| 2026-04-30 21:14 | 35.38365 | -82.51891 | 2927 ft | 127 kts | 342° |
| 2026-04-30 21:15 | 35.39202 | -82.52265 | 2761 ft | 128 kts | 341° |
| 2026-04-30 21:15 | 35.40048 | -82.52631 | 2623 ft | 128 kts | 342° |
| 2026-04-30 21:15 | 35.40895 | -82.53007 | 2471 ft | 130 kts | 343° |
| 2026-04-30 21:15 | 35.41747 | -82.53385 | 2345 ft | 128 kts | 343° |
| 2026-04-30 21:16 | 35.42569 | -82.53741 | 2158 ft | 123 kts | 342° |
| 2026-04-30 21:16 | 35.43310 | -82.54069 | 2142 ft | 88 kts | 341° |
| 2026-04-30 21:16 | 35.43696 | -82.54239 | 2160 ft | 44 kts | 341° |
| 2026-04-30 21:16 | 35.43947 | -82.54354 | 2161 ft | 31 kts | 341° |
| 2026-04-30 21:17 | 35.44039 | -82.54349 | 2160 ft | 9 kts | 9° |
| 2026-04-30 21:17 | 35.44093 | -82.54305 | 2160 ft | 9 kts | 93° |
| 2026-04-30 21:17 | 35.44045 | -82.54256 | 2161 ft | 9 kts | 159° |
| 2026-04-30 21:17 | 35.43984 | -82.54229 | 2161 ft | 9 kts | 160° |
| 2026-04-30 21:18 | 35.43915 | -82.54198 | 2161 ft | 11 kts | 160° |
| 2026-04-30 21:18 | 35.43835 | -82.54163 | 2161 ft | 12 kts | 160° |
| 2026-04-30 21:18 | 35.43740 | -82.54119 | 2159 ft | 16 kts | 160° |
| 2026-04-30 21:18 | 35.43619 | -82.54065 | 2154 ft | 20 kts | 159° |
| 2026-04-30 21:19 | 35.43523 | -82.53993 | 2149 ft | 10 kts | 89° |
| 2026-04-30 21:19 | 35.43525 | -82.53964 | 2149 ft | 1 kts | 100° |
| 2026-04-30 21:19 | 35.43523 | -82.53946 | 2149 ft | 2 kts | 94° |
| 2026-04-30 21:19 | 35.43522 | -82.53921 | 2149 ft | 3 kts | 97° |
| 2026-04-30 21:20 | 35.43517 | -82.53893 | 2149 ft | 3 kts | 103° |
| 2026-04-30 21:20 | 35.43514 | -82.53876 | 2149 ft | 1 kts | 102° |